sensor_id;sensor_type;location;lat;lon;timestamp;temperature;humidity
53880;DHT22;39791;53.184;5.486;2023-11-21T00:02:13;20.40;99.90
53880;DHT22;39791;53.184;5.486;2023-11-21T00:04:39;20.40;99.90
53880;DHT22;39791;53.184;5.486;2023-11-21T00:07:04;20.70;99.90
53880;DHT22;39791;53.184;5.486;2023-11-21T00:09:31;20.40;99.90
53880;DHT22;39791;53.184;5.486;2023-11-21T00:11:57;20.80;99.90
53880;DHT22;39791;53.184;5.486;2023-11-21T00:14:25;20.80;99.90
53880;DHT22;39791;53.184;5.486;2023-11-21T00:16:50;21.40;99.90
53880;DHT22;39791;53.184;5.486;2023-11-21T00:19:16;20.90;99.90
53880;DHT22;39791;53.184;5.486;2023-11-21T00:21:42;20.70;99.90
53880;DHT22;39791;53.184;5.486;2023-11-21T00:24:10;20.90;99.90
53880;DHT22;39791;53.184;5.486;2023-11-21T00:26:35;20.60;99.90
53880;DHT22;39791;53.184;5.486;2023-11-21T00:29:03;21.20;99.90
53880;DHT22;39791;53.184;5.486;2023-11-21T00:31:29;20.60;99.90
53880;DHT22;39791;53.184;5.486;2023-11-21T00:33:56;20.00;99.90
53880;DHT22;39791;53.184;5.486;2023-11-21T00:36:22;20.90;99.90
53880;DHT22;39791;53.184;5.486;2023-11-21T00:38:47;20.90;99.90
53880;DHT22;39791;53.184;5.486;2023-11-21T00:41:14;20.10;99.90
53880;DHT22;39791;53.184;5.486;2023-11-21T00:43:39;20.20;99.90
53880;DHT22;39791;53.184;5.486;2023-11-21T00:46:05;20.30;99.90
53880;DHT22;39791;53.184;5.486;2023-11-21T00:48:34;20.80;99.90
53880;DHT22;39791;53.184;5.486;2023-11-21T00:50:59;20.80;99.90
53880;DHT22;39791;53.184;5.486;2023-11-21T00:53:25;20.10;99.90
53880;DHT22;39791;53.184;5.486;2023-11-21T00:55:51;20.70;99.90
53880;DHT22;39791;53.184;5.486;2023-11-21T00:58:23;20.90;99.90
53880;DHT22;39791;53.184;5.486;2023-11-21T01:00:48;20.20;99.90
53880;DHT22;39791;53.184;5.486;2023-11-21T01:03:14;20.50;99.90
53880;DHT22;39791;53.184;5.486;2023-11-21T01:05:39;20.60;99.90
53880;DHT22;39791;53.184;5.486;2023-11-21T01:08:05;20.40;99.90
53880;DHT22;39791;53.184;5.486;2023-11-21T01:10:31;20.80;99.90
53880;DHT22;39791;53.184;5.486;2023-11-21T01:12:56;20.90;99.90
53880;DHT22;39791;53.184;5.486;2023-11-21T01:15:23;20.60;99.90
53880;DHT22;39791;53.184;5.486;2023-11-21T01:17:51;21.10;99.90
53880;DHT22;39791;53.184;5.486;2023-11-21T01:20:17;21.00;99.90
53880;DHT22;39791;53.184;5.486;2023-11-21T01:22:43;21.00;99.90
53880;DHT22;39791;53.184;5.486;2023-11-21T01:25:09;20.60;99.90
53880;DHT22;39791;53.184;5.486;2023-11-21T01:27:34;20.60;99.90
53880;DHT22;39791;53.184;5.486;2023-11-21T01:30:01;20.40;99.90
53880;DHT22;39791;53.184;5.486;2023-11-21T01:32:27;20.60;99.90
53880;DHT22;39791;53.184;5.486;2023-11-21T01:34:54;21.20;99.90
53880;DHT22;39791;53.184;5.486;2023-11-21T01:37:20;20.40;99.90
53880;DHT22;39791;53.184;5.486;2023-11-21T01:39:47;20.40;99.90
53880;DHT22;39791;53.184;5.486;2023-11-21T01:42:13;20.90;99.90
53880;DHT22;39791;53.184;5.486;2023-11-21T01:44:39;20.50;99.90
53880;DHT22;39791;53.184;5.486;2023-11-21T01:47:08;20.80;99.90
53880;DHT22;39791;53.184;5.486;2023-11-21T01:49:35;20.50;99.90
53880;DHT22;39791;53.184;5.486;2023-11-21T01:52:01;20.50;99.90
53880;DHT22;39791;53.184;5.486;2023-11-21T01:54:27;20.50;99.90
53880;DHT22;39791;53.184;5.486;2023-11-21T01:57:00;20.50;99.90
53880;DHT22;39791;53.184;5.486;2023-11-21T01:59:34;20.50;99.90
53880;DHT22;39791;53.184;5.486;2023-11-21T02:02:00;20.90;99.90
53880;DHT22;39791;53.184;5.486;2023-11-21T02:04:26;21.00;99.90
53880;DHT22;39791;53.184;5.486;2023-11-21T02:06:51;20.40;99.90
53880;DHT22;39791;53.184;5.486;2023-11-21T02:09:17;20.80;99.90
53880;DHT22;39791;53.184;5.486;2023-11-21T02:11:48;20.30;99.90
53880;DHT22;39791;53.184;5.486;2023-11-21T02:14:14;20.50;99.90
53880;DHT22;39791;53.184;5.486;2023-11-21T02:16:40;20.90;99.90
53880;DHT22;39791;53.184;5.486;2023-11-21T02:19:07;20.60;99.90
53880;DHT22;39791;53.184;5.486;2023-11-21T02:21:34;20.80;99.90
53880;DHT22;39791;53.184;5.486;2023-11-21T02:24:01;20.30;99.90
53880;DHT22;39791;53.184;5.486;2023-11-21T02:26:27;21.00;99.90
53880;DHT22;39791;53.184;5.486;2023-11-21T02:28:52;20.30;99.90
53880;DHT22;39791;53.184;5.486;2023-11-21T02:31:18;20.00;99.90
53880;DHT22;39791;53.184;5.486;2023-11-21T02:33:44;20.70;99.90
53880;DHT22;39791;53.184;5.486;2023-11-21T02:36:10;19.90;99.90
53880;DHT22;39791;53.184;5.486;2023-11-21T02:38:35;20.80;99.90
53880;DHT22;39791;53.184;5.486;2023-11-21T02:41:01;19.90;99.90
53880;DHT22;39791;53.184;5.486;2023-11-21T02:43:26;20.40;99.90
53880;DHT22;39791;53.184;5.486;2023-11-21T02:45:52;20.30;99.90
53880;DHT22;39791;53.184;5.486;2023-11-21T02:48:17;20.80;99.90
53880;DHT22;39791;53.184;5.486;2023-11-21T02:50:43;20.60;99.90
53880;DHT22;39791;53.184;5.486;2023-11-21T02:53:09;20.20;99.90
53880;DHT22;39791;53.184;5.486;2023-11-21T02:55:36;20.80;99.90
53880;DHT22;39791;53.184;5.486;2023-11-21T02:58:02;21.00;99.90
53880;DHT22;39791;53.184;5.486;2023-11-21T03:00:29;20.80;99.90
53880;DHT22;39791;53.184;5.486;2023-11-21T03:02:55;19.90;99.90
53880;DHT22;39791;53.184;5.486;2023-11-21T03:05:21;20.40;99.90
53880;DHT22;39791;53.184;5.486;2023-11-21T03:07:47;19.90;99.90
53880;DHT22;39791;53.184;5.486;2023-11-21T03:10:12;20.00;99.90
53880;DHT22;39791;53.184;5.486;2023-11-21T03:12:38;19.90;99.90
53880;DHT22;39791;53.184;5.486;2023-11-21T03:15:08;20.80;99.90
53880;DHT22;39791;53.184;5.486;2023-11-21T03:17:34;20.00;99.90
53880;DHT22;39791;53.184;5.486;2023-11-21T03:20:00;20.80;99.90
53880;DHT22;39791;53.184;5.486;2023-11-21T03:22:26;20.10;99.90
53880;DHT22;39791;53.184;5.486;2023-11-21T03:24:52;20.90;99.90
53880;DHT22;39791;53.184;5.486;2023-11-21T03:27:18;20.00;99.90
53880;DHT22;39791;53.184;5.486;2023-11-21T03:29:44;20.10;99.90
53880;DHT22;39791;53.184;5.486;2023-11-21T03:32:10;20.20;99.90
53880;DHT22;39791;53.184;5.486;2023-11-21T03:34:56;20.40;99.90
53880;DHT22;39791;53.184;5.486;2023-11-21T03:37:23;21.10;99.90
53880;DHT22;39791;53.184;5.486;2023-11-21T03:39:48;20.20;99.90
53880;DHT22;39791;53.184;5.486;2023-11-21T03:42:14;20.00;99.90
53880;DHT22;39791;53.184;5.486;2023-11-21T03:44:39;20.00;99.90
53880;DHT22;39791;53.184;5.486;2023-11-21T03:47:05;21.10;99.90
53880;DHT22;39791;53.184;5.486;2023-11-21T03:49:31;20.70;99.90
53880;DHT22;39791;53.184;5.486;2023-11-21T03:51:56;20.40;99.90
53880;DHT22;39791;53.184;5.486;2023-11-21T03:54:22;20.00;99.90
53880;DHT22;39791;53.184;5.486;2023-11-21T03:56:47;20.60;99.90
53880;DHT22;39791;53.184;5.486;2023-11-21T03:59:13;20.20;99.90
53880;DHT22;39791;53.184;5.486;2023-11-21T04:01:38;21.00;99.90
53880;DHT22;39791;53.184;5.486;2023-11-21T04:04:04;20.70;99.90
53880;DHT22;39791;53.184;5.486;2023-11-21T04:06:30;20.90;99.90
53880;DHT22;39791;53.184;5.486;2023-11-21T04:08:55;20.10;99.90
53880;DHT22;39791;53.184;5.486;2023-11-21T04:11:21;20.20;99.90
53880;DHT22;39791;53.184;5.486;2023-11-21T04:13:46;20.60;99.90
53880;DHT22;39791;53.184;5.486;2023-11-21T04:16:12;20.00;99.90
53880;DHT22;39791;53.184;5.486;2023-11-21T04:18:38;20.00;99.90
53880;DHT22;39791;53.184;5.486;2023-11-21T04:21:07;20.80;99.90
53880;DHT22;39791;53.184;5.486;2023-11-21T04:23:33;20.80;99.90
53880;DHT22;39791;53.184;5.486;2023-11-21T04:25:59;19.90;99.90
53880;DHT22;39791;53.184;5.486;2023-11-21T04:28:25;20.00;99.90
53880;DHT22;39791;53.184;5.486;2023-11-21T04:30:51;20.00;99.90
53880;DHT22;39791;53.184;5.486;2023-11-21T04:33:16;20.90;99.90
53880;DHT22;39791;53.184;5.486;2023-11-21T04:35:42;19.90;99.90
53880;DHT22;39791;53.184;5.486;2023-11-21T04:38:08;19.90;99.90
53880;DHT22;39791;53.184;5.486;2023-11-21T04:40:33;19.80;99.90
53880;DHT22;39791;53.184;5.486;2023-11-21T04:42:59;19.80;99.90
53880;DHT22;39791;53.184;5.486;2023-11-21T04:45:24;20.60;99.90
53880;DHT22;39791;53.184;5.486;2023-11-21T04:47:50;19.80;99.90
53880;DHT22;39791;53.184;5.486;2023-11-21T04:50:16;20.80;99.90
53880;DHT22;39791;53.184;5.486;2023-11-21T04:52:41;20.30;99.90
53880;DHT22;39791;53.184;5.486;2023-11-21T04:55:07;20.10;99.90
53880;DHT22;39791;53.184;5.486;2023-11-21T04:57:38;20.10;99.90
53880;DHT22;39791;53.184;5.486;2023-11-21T05:00:08;19.70;99.90
53880;DHT22;39791;53.184;5.486;2023-11-21T05:02:34;19.90;99.90
53880;DHT22;39791;53.184;5.486;2023-11-21T05:05:00;19.60;99.90
53880;DHT22;39791;53.184;5.486;2023-11-21T05:07:26;20.80;99.90
53880;DHT22;39791;53.184;5.486;2023-11-21T05:09:57;19.90;99.90
53880;DHT22;39791;53.184;5.486;2023-11-21T05:12:24;20.20;99.90
53880;DHT22;39791;53.184;5.486;2023-11-21T05:14:50;20.90;99.90
53880;DHT22;39791;53.184;5.486;2023-11-21T05:17:16;20.60;99.90
53880;DHT22;39791;53.184;5.486;2023-11-21T05:19:41;20.50;99.90
53880;DHT22;39791;53.184;5.486;2023-11-21T05:22:08;20.60;99.90
53880;DHT22;39791;53.184;5.486;2023-11-21T05:24:34;20.30;99.90
53880;DHT22;39791;53.184;5.486;2023-11-21T05:27:00;20.60;99.90
53880;DHT22;39791;53.184;5.486;2023-11-21T05:29:26;20.50;99.90
53880;DHT22;39791;53.184;5.486;2023-11-21T05:31:52;19.40;99.90
53880;DHT22;39791;53.184;5.486;2023-11-21T05:34:18;19.50;99.90
53880;DHT22;39791;53.184;5.486;2023-11-21T05:36:44;19.40;99.90
53880;DHT22;39791;53.184;5.486;2023-11-21T05:39:14;19.90;99.90
53880;DHT22;39791;53.184;5.486;2023-11-21T05:41:39;20.40;99.90
53880;DHT22;39791;53.184;5.486;2023-11-21T05:44:05;20.30;99.90
53880;DHT22;39791;53.184;5.486;2023-11-21T05:46:31;19.60;99.90
53880;DHT22;39791;53.184;5.486;2023-11-21T05:48:56;19.70;99.90
53880;DHT22;39791;53.184;5.486;2023-11-21T05:51:22;19.30;99.90
53880;DHT22;39791;53.184;5.486;2023-11-21T05:53:47;20.10;99.90
53880;DHT22;39791;53.184;5.486;2023-11-21T05:56:13;20.00;99.90
53880;DHT22;39791;53.184;5.486;2023-11-21T05:58:39;20.50;99.90
53880;DHT22;39791;53.184;5.486;2023-11-21T06:01:06;19.30;99.90
53880;DHT22;39791;53.184;5.486;2023-11-21T06:03:35;19.40;99.90
53880;DHT22;39791;53.184;5.486;2023-11-21T06:06:00;19.20;99.90
53880;DHT22;39791;53.184;5.486;2023-11-21T06:08:26;20.30;99.90
53880;DHT22;39791;53.184;5.486;2023-11-21T06:10:52;20.00;99.90
53880;DHT22;39791;53.184;5.486;2023-11-21T06:13:17;19.20;99.90
53880;DHT22;39791;53.184;5.486;2023-11-21T06:15:46;20.40;99.90
53880;DHT22;39791;53.184;5.486;2023-11-21T06:18:11;19.10;99.90
53880;DHT22;39791;53.184;5.486;2023-11-21T06:20:37;19.00;99.90
53880;DHT22;39791;53.184;5.486;2023-11-21T06:23:02;20.60;99.90
53880;DHT22;39791;53.184;5.486;2023-11-21T06:25:29;19.70;99.90
53880;DHT22;39791;53.184;5.486;2023-11-21T06:27:54;19.30;99.90
53880;DHT22;39791;53.184;5.486;2023-11-21T06:30:21;20.40;99.90
53880;DHT22;39791;53.184;5.486;2023-11-21T06:32:48;19.60;99.90
53880;DHT22;39791;53.184;5.486;2023-11-21T06:35:15;19.20;99.90
53880;DHT22;39791;53.184;5.486;2023-11-21T06:37:41;19.50;99.90
53880;DHT22;39791;53.184;5.486;2023-11-21T06:40:07;20.40;99.90
53880;DHT22;39791;53.184;5.486;2023-11-21T06:42:32;20.50;99.90
53880;DHT22;39791;53.184;5.486;2023-11-21T06:44:59;19.90;99.90
53880;DHT22;39791;53.184;5.486;2023-11-21T06:47:25;20.30;99.90
53880;DHT22;39791;53.184;5.486;2023-11-21T06:49:51;20.20;99.90
53880;DHT22;39791;53.184;5.486;2023-11-21T06:52:18;20.50;99.90
53880;DHT22;39791;53.184;5.486;2023-11-21T06:54:43;20.40;99.90
53880;DHT22;39791;53.184;5.486;2023-11-21T06:57:09;20.20;99.90
53880;DHT22;39791;53.184;5.486;2023-11-21T06:59:34;20.60;99.90
53880;DHT22;39791;53.184;5.486;2023-11-21T07:02:00;19.00;99.90
53880;DHT22;39791;53.184;5.486;2023-11-21T07:04:26;19.60;99.90
53880;DHT22;39791;53.184;5.486;2023-11-21T07:06:53;19.30;99.90
53880;DHT22;39791;53.184;5.486;2023-11-21T07:09:18;19.40;99.90
53880;DHT22;39791;53.184;5.486;2023-11-21T07:11:50;20.40;99.90
53880;DHT22;39791;53.184;5.486;2023-11-21T07:14:16;20.30;99.90
53880;DHT22;39791;53.184;5.486;2023-11-21T07:16:42;19.40;99.90
53880;DHT22;39791;53.184;5.486;2023-11-21T07:19:08;19.60;99.90
53880;DHT22;39791;53.184;5.486;2023-11-21T07:21:37;19.60;99.90
53880;DHT22;39791;53.184;5.486;2023-11-21T07:24:03;19.30;99.90
53880;DHT22;39791;53.184;5.486;2023-11-21T07:26:30;20.00;99.90
53880;DHT22;39791;53.184;5.486;2023-11-21T07:28:55;19.00;99.90
53880;DHT22;39791;53.184;5.486;2023-11-21T07:31:22;20.30;99.90
53880;DHT22;39791;53.184;5.486;2023-11-21T07:33:48;20.20;99.90
53880;DHT22;39791;53.184;5.486;2023-11-21T07:36:14;19.30;99.90
53880;DHT22;39791;53.184;5.486;2023-11-21T07:38:41;19.60;99.90
53880;DHT22;39791;53.184;5.486;2023-11-21T07:41:06;19.80;99.90
53880;DHT22;39791;53.184;5.486;2023-11-21T07:43:35;19.00;99.90
53880;DHT22;39791;53.184;5.486;2023-11-21T07:46:04;20.40;99.90
53880;DHT22;39791;53.184;5.486;2023-11-21T07:48:30;19.80;99.90
53880;DHT22;39791;53.184;5.486;2023-11-21T07:50:57;19.20;99.90
53880;DHT22;39791;53.184;5.486;2023-11-21T07:53:26;19.10;99.90
53880;DHT22;39791;53.184;5.486;2023-11-21T07:55:54;19.30;99.90
53880;DHT22;39791;53.184;5.486;2023-11-21T07:58:20;19.60;99.90
53880;DHT22;39791;53.184;5.486;2023-11-21T08:00:46;20.90;99.90
53880;DHT22;39791;53.184;5.486;2023-11-21T08:03:13;20.10;99.90
53880;DHT22;39791;53.184;5.486;2023-11-21T08:05:39;19.50;99.90
53880;DHT22;39791;53.184;5.486;2023-11-21T08:08:05;19.40;99.90
53880;DHT22;39791;53.184;5.486;2023-11-21T08:10:30;19.00;99.90
53880;DHT22;39791;53.184;5.486;2023-11-21T08:12:56;20.20;99.90
53880;DHT22;39791;53.184;5.486;2023-11-21T08:15:22;19.20;99.90
53880;DHT22;39791;53.184;5.486;2023-11-21T08:17:47;19.70;99.90
53880;DHT22;39791;53.184;5.486;2023-11-21T08:20:13;20.20;99.90
53880;DHT22;39791;53.184;5.486;2023-11-21T08:22:42;19.50;99.90
53880;DHT22;39791;53.184;5.486;2023-11-21T08:25:08;19.20;99.90
53880;DHT22;39791;53.184;5.486;2023-11-21T08:27:34;19.20;99.90
53880;DHT22;39791;53.184;5.486;2023-11-21T08:30:03;19.20;99.90
53880;DHT22;39791;53.184;5.486;2023-11-21T08:32:29;19.30;99.90
53880;DHT22;39791;53.184;5.486;2023-11-21T08:34:57;20.40;99.90
53880;DHT22;39791;53.184;5.486;2023-11-21T08:37:23;19.10;99.90
53880;DHT22;39791;53.184;5.486;2023-11-21T08:39:49;19.40;99.90
53880;DHT22;39791;53.184;5.486;2023-11-21T08:42:15;20.00;99.90
53880;DHT22;39791;53.184;5.486;2023-11-21T08:44:40;19.90;99.90
53880;DHT22;39791;53.184;5.486;2023-11-21T08:47:06;20.00;99.90
53880;DHT22;39791;53.184;5.486;2023-11-21T08:49:32;20.20;99.90
53880;DHT22;39791;53.184;5.486;2023-11-21T08:51:58;19.40;99.90
53880;DHT22;39791;53.184;5.486;2023-11-21T08:54:25;19.50;99.90
53880;DHT22;39791;53.184;5.486;2023-11-21T08:56:55;19.30;99.90
53880;DHT22;39791;53.184;5.486;2023-11-21T08:59:21;20.00;99.90
53880;DHT22;39791;53.184;5.486;2023-11-21T09:01:47;19.30;99.90
53880;DHT22;39791;53.184;5.486;2023-11-21T09:04:12;19.60;99.90
53880;DHT22;39791;53.184;5.486;2023-11-21T09:06:39;19.80;99.90
53880;DHT22;39791;53.184;5.486;2023-11-21T09:09:05;21.00;99.90
53880;DHT22;39791;53.184;5.486;2023-11-21T09:11:32;20.10;99.90
53880;DHT22;39791;53.184;5.486;2023-11-21T09:13:59;19.30;99.90
53880;DHT22;39791;53.184;5.486;2023-11-21T09:16:25;19.50;99.90
53880;DHT22;39791;53.184;5.486;2023-11-21T09:18:51;19.70;99.90
53880;DHT22;39791;53.184;5.486;2023-11-21T09:21:16;19.40;99.90
53880;DHT22;39791;53.184;5.486;2023-11-21T09:23:44;19.50;99.90
53880;DHT22;39791;53.184;5.486;2023-11-21T09:26:10;19.40;99.90
53880;DHT22;39791;53.184;5.486;2023-11-21T09:28:35;19.90;99.90
53880;DHT22;39791;53.184;5.486;2023-11-21T09:31:05;19.90;99.90
53880;DHT22;39791;53.184;5.486;2023-11-21T09:33:30;20.00;99.90
53880;DHT22;39791;53.184;5.486;2023-11-21T09:35:57;19.50;99.90
53880;DHT22;39791;53.184;5.486;2023-11-21T09:38:23;19.40;99.90
53880;DHT22;39791;53.184;5.486;2023-11-21T09:40:49;19.50;99.90
53880;DHT22;39791;53.184;5.486;2023-11-21T09:43:19;19.70;99.90
53880;DHT22;39791;53.184;5.486;2023-11-21T09:45:46;19.40;99.90
53880;DHT22;39791;53.184;5.486;2023-11-21T09:48:14;19.30;99.90
53880;DHT22;39791;53.184;5.486;2023-11-21T09:50:42;19.90;99.90
53880;DHT22;39791;53.184;5.486;2023-11-21T09:53:16;19.50;99.90
53880;DHT22;39791;53.184;5.486;2023-11-21T09:55:46;20.60;99.90
53880;DHT22;39791;53.184;5.486;2023-11-21T09:58:12;19.30;99.90
53880;DHT22;39791;53.184;5.486;2023-11-21T10:00:42;19.80;99.90
53880;DHT22;39791;53.184;5.486;2023-11-21T10:03:09;19.70;99.90
53880;DHT22;39791;53.184;5.486;2023-11-21T10:05:36;19.90;42.60
53880;DHT22;39791;53.184;5.486;2023-11-21T10:08:09;20.50;1.00
53880;DHT22;39791;53.184;5.486;2023-11-21T10:10:38;19.60;99.90
53880;DHT22;39791;53.184;5.486;2023-11-21T10:13:07;19.90;32.60
53880;DHT22;39791;53.184;5.486;2023-11-21T10:15:35;19.80;1.00
53880;DHT22;39791;53.184;5.486;2023-11-21T10:18:06;19.80;99.90
53880;DHT22;39791;53.184;5.486;2023-11-21T10:20:33;19.60;99.90
53880;DHT22;39791;53.184;5.486;2023-11-21T10:23:03;19.40;86.30
53880;DHT22;39791;53.184;5.486;2023-11-21T10:25:30;19.50;1.00
53880;DHT22;39791;53.184;5.486;2023-11-21T10:28:01;19.90;99.90
53880;DHT22;39791;53.184;5.486;2023-11-21T10:30:35;19.40;99.90
53880;DHT22;39791;53.184;5.486;2023-11-21T10:33:07;19.80;56.90
53880;DHT22;39791;53.184;5.486;2023-11-21T10:38:08;19.80;23.90
53880;DHT22;39791;53.184;5.486;2023-11-21T10:40:43;19.80;1.00
53880;DHT22;39791;53.184;5.486;2023-11-21T10:43:10;19.30;99.90
53880;DHT22;39791;53.184;5.486;2023-11-21T10:45:39;19.50;1.00
53880;DHT22;39791;53.184;5.486;2023-11-21T10:48:10;19.60;99.90
53880;DHT22;39791;53.184;5.486;2023-11-21T10:50:38;19.20;99.90
53880;DHT22;39791;53.184;5.486;2023-11-21T10:53:04;19.90;71.00
53880;DHT22;39791;53.184;5.486;2023-11-21T10:55:33;19.30;1.00
53880;DHT22;39791;53.184;5.486;2023-11-21T10:58:01;19.50;1.00
53880;DHT22;39791;53.184;5.486;2023-11-21T11:00:29;19.90;1.00
53880;DHT22;39791;53.184;5.486;2023-11-21T11:02:55;19.80;99.90
53880;DHT22;39791;53.184;5.486;2023-11-21T11:05:22;19.60;99.90
53880;DHT22;39791;53.184;5.486;2023-11-21T11:08:25;19.80;99.90
53880;DHT22;39791;53.184;5.486;2023-11-21T11:10:45;19.50;99.90
53880;DHT22;39791;53.184;5.486;2023-11-21T11:13:13;19.80;23.70
53880;DHT22;39791;53.184;5.486;2023-11-21T11:15:40;19.70;1.00
53880;DHT22;39791;53.184;5.486;2023-11-21T11:18:07;19.30;1.00
53880;DHT22;39791;53.184;5.486;2023-11-21T11:20:36;19.30;1.00
53880;DHT22;39791;53.184;5.486;2023-11-21T11:28:39;19.30;99.90
53880;DHT22;39791;53.184;5.486;2023-11-21T11:31:39;19.30;99.90
53880;DHT22;39791;53.184;5.486;2023-11-21T11:36:49;19.50;1.00
53880;DHT22;39791;53.184;5.486;2023-11-21T11:39:27;19.30;1.00
53880;DHT22;39791;53.184;5.486;2023-11-21T11:41:53;19.40;1.00
53880;DHT22;39791;53.184;5.486;2023-11-21T11:47:15;19.40;99.90
53880;DHT22;39791;53.184;5.486;2023-11-21T11:52:34;19.40;99.90
53880;DHT22;39791;53.184;5.486;2023-11-21T11:55:00;19.40;99.90
53880;DHT22;39791;53.184;5.486;2023-11-21T11:57:30;19.50;99.90
53880;DHT22;39791;53.184;5.486;2023-11-21T12:00:15;19.30;99.90
53880;DHT22;39791;53.184;5.486;2023-11-21T12:02:44;19.30;99.90
53880;DHT22;39791;53.184;5.486;2023-11-21T12:05:15;19.40;99.90
53880;DHT22;39791;53.184;5.486;2023-11-21T12:08:02;19.50;99.90
53880;DHT22;39791;53.184;5.486;2023-11-21T12:10:33;19.40;99.90
53880;DHT22;39791;53.184;5.486;2023-11-21T12:13:00;19.50;99.90
53880;DHT22;39791;53.184;5.486;2023-11-21T12:15:26;19.50;99.90
53880;DHT22;39791;53.184;5.486;2023-11-21T12:17:56;19.30;99.90
53880;DHT22;39791;53.184;5.486;2023-11-21T12:20:23;19.20;99.90
53880;DHT22;39791;53.184;5.486;2023-11-21T12:22:54;19.20;99.90
53880;DHT22;39791;53.184;5.486;2023-11-21T12:25:21;19.50;99.90
53880;DHT22;39791;53.184;5.486;2023-11-21T12:27:49;19.30;99.90
53880;DHT22;39791;53.184;5.486;2023-11-21T12:30:16;19.50;99.90
53880;DHT22;39791;53.184;5.486;2023-11-21T12:32:48;19.40;99.90
53880;DHT22;39791;53.184;5.486;2023-11-21T12:35:14;20.70;99.90
53880;DHT22;39791;53.184;5.486;2023-11-21T12:37:41;20.60;99.90
53880;DHT22;39791;53.184;5.486;2023-11-21T12:40:10;19.50;90.50
53880;DHT22;39791;53.184;5.486;2023-11-21T12:42:45;19.40;66.90
53880;DHT22;39791;53.184;5.486;2023-11-21T12:48:04;19.50;22.00
53880;DHT22;39791;53.184;5.486;2023-11-21T12:50:34;19.60;1.00
53880;DHT22;39791;53.184;5.486;2023-11-21T12:53:04;19.50;1.00
53880;DHT22;39791;53.184;5.486;2023-11-21T12:55:31;19.30;1.00
53880;DHT22;39791;53.184;5.486;2023-11-21T12:57:57;19.30;1.00
53880;DHT22;39791;53.184;5.486;2023-11-21T13:00:35;19.30;1.00
53880;DHT22;39791;53.184;5.486;2023-11-21T13:03:04;19.40;1.00
53880;DHT22;39791;53.184;5.486;2023-11-21T13:05:34;19.50;1.00
53880;DHT22;39791;53.184;5.486;2023-11-21T13:08:03;19.40;1.00
53880;DHT22;39791;53.184;5.486;2023-11-21T13:10:30;19.30;1.00
53880;DHT22;39791;53.184;5.486;2023-11-21T13:13:00;19.30;1.00
53880;DHT22;39791;53.184;5.486;2023-11-21T13:15:29;19.30;1.00
53880;DHT22;39791;53.184;5.486;2023-11-21T13:17:57;19.20;1.00
53880;DHT22;39791;53.184;5.486;2023-11-21T13:20:23;19.30;1.00
53880;DHT22;39791;53.184;5.486;2023-11-21T13:22:50;19.40;1.00
53880;DHT22;39791;53.184;5.486;2023-11-21T13:25:20;19.20;1.00
53880;DHT22;39791;53.184;5.486;2023-11-21T13:27:46;19.20;1.00
53880;DHT22;39791;53.184;5.486;2023-11-21T13:30:13;19.30;1.00
53880;DHT22;39791;53.184;5.486;2023-11-21T13:32:45;19.20;1.00
53880;DHT22;39791;53.184;5.486;2023-11-21T13:35:16;19.20;1.00
53880;DHT22;39791;53.184;5.486;2023-11-21T13:37:56;19.30;1.00
53880;DHT22;39791;53.184;5.486;2023-11-21T13:40:25;19.20;1.00
53880;DHT22;39791;53.184;5.486;2023-11-21T13:42:55;19.30;1.00
53880;DHT22;39791;53.184;5.486;2023-11-21T13:45:23;19.30;1.00
53880;DHT22;39791;53.184;5.486;2023-11-21T13:47:51;19.20;1.00
53880;DHT22;39791;53.184;5.486;2023-11-21T13:50:20;19.10;1.00
53880;DHT22;39791;53.184;5.486;2023-11-21T13:52:50;19.10;1.00
53880;DHT22;39791;53.184;5.486;2023-11-21T13:55:19;19.10;1.00
53880;DHT22;39791;53.184;5.486;2023-11-21T13:57:45;19.20;1.00
53880;DHT22;39791;53.184;5.486;2023-11-21T14:00:15;19.30;1.00
53880;DHT22;39791;53.184;5.486;2023-11-21T14:03:00;19.20;1.00
53880;DHT22;39791;53.184;5.486;2023-11-21T14:05:29;19.20;1.00
53880;DHT22;39791;53.184;5.486;2023-11-21T14:07:55;19.20;1.00
53880;DHT22;39791;53.184;5.486;2023-11-21T14:10:27;19.00;1.00
53880;DHT22;39791;53.184;5.486;2023-11-21T14:13:02;18.80;1.00
53880;DHT22;39791;53.184;5.486;2023-11-21T14:15:30;18.80;1.00
53880;DHT22;39791;53.184;5.486;2023-11-21T14:17:58;19.00;1.00
53880;DHT22;39791;53.184;5.486;2023-11-21T14:20:25;18.70;23.70
53880;DHT22;39791;53.184;5.486;2023-11-21T14:22:50;18.80;68.00
53880;DHT22;39791;53.184;5.486;2023-11-21T14:25:17;18.70;99.90
53880;DHT22;39791;53.184;5.486;2023-11-21T14:27:43;18.90;99.90
53880;DHT22;39791;53.184;5.486;2023-11-21T14:30:09;18.90;99.90
53880;DHT22;39791;53.184;5.486;2023-11-21T14:32:38;18.70;99.90
53880;DHT22;39791;53.184;5.486;2023-11-21T14:35:04;18.90;99.90
53880;DHT22;39791;53.184;5.486;2023-11-21T14:37:30;18.90;99.90
53880;DHT22;39791;53.184;5.486;2023-11-21T14:39:56;19.50;99.90
53880;DHT22;39791;53.184;5.486;2023-11-21T14:42:22;18.70;99.90
53880;DHT22;39791;53.184;5.486;2023-11-21T14:44:51;18.80;99.90
53880;DHT22;39791;53.184;5.486;2023-11-21T14:47:17;18.80;99.90
53880;DHT22;39791;53.184;5.486;2023-11-21T14:49:50;18.60;99.90
53880;DHT22;39791;53.184;5.486;2023-11-21T14:52:22;18.80;99.90
53880;DHT22;39791;53.184;5.486;2023-11-21T14:55:04;18.70;99.90
53880;DHT22;39791;53.184;5.486;2023-11-21T14:57:49;18.60;99.90
53880;DHT22;39791;53.184;5.486;2023-11-21T15:00:20;18.70;99.90
53880;DHT22;39791;53.184;5.486;2023-11-21T15:02:57;18.40;99.90
53880;DHT22;39791;53.184;5.486;2023-11-21T15:05:23;18.60;99.90
53880;DHT22;39791;53.184;5.486;2023-11-21T15:07:49;18.50;99.90
53880;DHT22;39791;53.184;5.486;2023-11-21T15:10:15;18.30;99.90
53880;DHT22;39791;53.184;5.486;2023-11-21T15:12:41;19.20;99.90
53880;DHT22;39791;53.184;5.486;2023-11-21T15:15:09;18.40;99.90
53880;DHT22;39791;53.184;5.486;2023-11-21T15:17:36;18.40;99.90
53880;DHT22;39791;53.184;5.486;2023-11-21T15:20:03;18.20;99.90
53880;DHT22;39791;53.184;5.486;2023-11-21T15:22:29;18.30;99.90
53880;DHT22;39791;53.184;5.486;2023-11-21T15:24:55;18.30;99.90
53880;DHT22;39791;53.184;5.486;2023-11-21T15:27:21;18.00;99.90
53880;DHT22;39791;53.184;5.486;2023-11-21T15:29:47;18.00;99.90
53880;DHT22;39791;53.184;5.486;2023-11-21T15:32:13;18.20;99.90
53880;DHT22;39791;53.184;5.486;2023-11-21T15:34:39;18.10;99.90
53880;DHT22;39791;53.184;5.486;2023-11-21T15:37:08;17.90;99.90
53880;DHT22;39791;53.184;5.486;2023-11-21T15:39:37;17.80;99.90
53880;DHT22;39791;53.184;5.486;2023-11-21T15:42:03;17.80;99.90
53880;DHT22;39791;53.184;5.486;2023-11-21T15:44:30;17.80;1.00
53880;DHT22;39791;53.184;5.486;2023-11-21T15:46:58;17.70;1.00
53880;DHT22;39791;53.184;5.486;2023-11-21T15:49:24;17.70;1.00
53880;DHT22;39791;53.184;5.486;2023-11-21T15:51:52;18.00;1.00
53880;DHT22;39791;53.184;5.486;2023-11-21T15:54:19;17.70;1.00